createdAt,value
2023-05-19T00:04:21.637Z,46.12
2023-05-19T00:07:30.209Z,46.28
2023-05-19T00:10:33.560Z,46.55
2023-05-19T00:13:36.575Z,46.66
2023-05-19T00:16:39.122Z,46.82
2023-05-19T00:19:41.061Z,47.06
2023-05-19T00:22:45.118Z,47.45
2023-05-19T00:25:47.126Z,47.75
2023-05-19T00:35:09.401Z,48.61
2023-05-19T00:38:11.597Z,48.79
2023-05-19T00:41:13.730Z,48.95
2023-05-19T00:44:16.227Z,49.21
2023-05-19T00:47:18.498Z,49.60
2023-05-19T00:50:21.372Z,49.96
2023-05-19T00:53:24.852Z,50.06
2023-05-19T00:56:27.712Z,50.39
2023-05-19T00:59:30.040Z,50.55
2023-05-19T01:02:32.850Z,50.98
2023-05-19T01:05:35.228Z,51.42
2023-05-19T01:08:38.920Z,51.72
2023-05-19T01:11:41.103Z,51.95
2023-05-19T01:14:44.599Z,52.18
2023-05-19T01:18:03.613Z,52.46
2023-05-19T01:21:37.857Z,52.95
2023-05-19T01:25:01.952Z,53.70
2023-05-19T01:28:22.673Z,54.05
2023-05-19T01:31:26.853Z,54.65
2023-05-19T01:34:31.559Z,54.91
2023-05-19T01:37:34.858Z,55.29
2023-05-19T01:40:39.019Z,55.64
2023-05-19T01:43:41.396Z,56.01
2023-05-19T01:46:44.279Z,56.65
2023-05-19T01:49:47.676Z,57.12
2023-05-19T01:52:50.355Z,57.62
2023-05-19T01:55:55.392Z,58.12
2023-05-19T01:59:06.172Z,58.52
2023-05-19T02:04:50.702Z,58.95
2023-05-19T02:08:02.667Z,59.13
2023-05-19T02:11:34.965Z,59.32
2023-05-19T02:14:41.875Z,59.48
2023-05-19T02:17:47.882Z,59.74
2023-05-19T02:20:50.168Z,59.93
2023-05-19T02:23:53.169Z,60.32
2023-05-19T02:26:55.431Z,60.54
2023-05-19T02:29:57.823Z,60.72
2023-05-19T02:33:00.132Z,61.33
2023-05-19T02:36:03.165Z,62.37
2023-05-19T02:39:05.544Z,63.05
2023-05-19T02:42:08.945Z,63.53
2023-05-19T02:45:11.519Z,64.20
2023-05-19T02:48:16.747Z,64.63
2023-05-19T02:51:19.036Z,64.89
2023-05-19T02:54:21.221Z,65.12
2023-05-19T02:57:24.274Z,65.21
2023-05-19T03:00:26.513Z,65.90
2023-05-19T03:03:28.870Z,66.37
2023-05-19T03:06:32.758Z,66.60
2023-05-19T03:09:35.392Z,66.95
2023-05-19T03:12:37.539Z,66.86
2023-05-19T03:15:39.786Z,67.09
2023-05-19T03:18:42.964Z,67.24
2023-05-19T03:21:46.131Z,67.48
2023-05-19T03:24:50.907Z,67.63
2023-05-19T03:27:53.069Z,67.69
2023-05-19T03:30:55.881Z,67.92
2023-05-19T03:34:02.978Z,67.99
2023-05-19T03:37:05.508Z,68.14
2023-05-19T03:40:09.212Z,68.10
2023-05-19T03:43:13.035Z,68.64
2023-05-19T03:46:20.996Z,68.95
2023-05-19T03:49:36.231Z,69.21
2023-05-19T03:52:57.241Z,69.12
2023-05-19T03:56:11.369Z,68.96
2023-05-19T03:59:16.132Z,68.87
2023-05-19T04:04:23.455Z,68.77
2023-05-19T04:07:26.331Z,68.40
2023-05-19T04:10:29.030Z,68.13
2023-05-19T04:13:33.914Z,67.98
2023-05-19T04:16:36.494Z,67.80
2023-05-19T04:19:39.011Z,67.69
2023-05-19T04:22:41.878Z,67.65
2023-05-19T04:25:44.640Z,67.64
2023-05-19T04:28:46.930Z,67.50
2023-05-19T04:31:49.486Z,67.55
2023-05-19T04:34:52.747Z,67.65
2023-05-19T04:37:58.646Z,67.70
2023-05-19T04:41:04.958Z,67.97
2023-05-19T04:44:09.330Z,67.71
2023-05-19T04:47:12.546Z,67.92
2023-05-19T04:50:16.917Z,67.96
2023-05-19T04:53:22.090Z,68.08
2023-05-19T05:09:51.493Z,69.42
2023-05-19T05:12:54.385Z,69.72
2023-05-19T05:15:56.959Z,70.06
2023-05-19T05:19:00.293Z,70.06
2023-05-19T05:22:03.267Z,70.38
2023-05-19T05:25:07.078Z,70.65
2023-05-19T05:28:10.709Z,70.77
2023-05-19T05:31:13.052Z,70.89
2023-05-19T05:34:15.845Z,71.05
2023-05-19T05:37:18.186Z,70.75
2023-05-19T05:40:21.364Z,70.57
2023-05-19T05:43:23.759Z,70.21
2023-05-19T05:46:30.700Z,69.72
2023-05-19T06:04:22.439Z,67.79
2023-05-19T06:07:24.999Z,67.33
2023-05-19T06:10:29.193Z,67.16
2023-05-19T06:13:31.664Z,67.01
2023-05-19T06:16:34.081Z,66.86
2023-05-19T06:19:36.244Z,66.51
2023-05-19T06:22:38.672Z,65.88
2023-05-19T06:25:41.142Z,65.64
2023-05-19T06:28:43.614Z,65.45
2023-05-19T06:31:46.725Z,65.37
2023-05-19T06:34:54.480Z,65.05
2023-05-19T06:37:57.353Z,64.72
2023-05-19T06:40:59.575Z,64.59
2023-05-19T06:44:02.586Z,64.17
2023-05-19T06:47:08.181Z,64.12
2023-05-19T06:50:10.986Z,64.04
2023-05-19T06:53:14.724Z,63.92
2023-05-19T06:56:19.172Z,63.73
2023-05-19T06:59:23.216Z,63.46
2023-05-19T07:02:26.371Z,63.00
2023-05-19T07:05:28.965Z,62.66
2023-05-19T07:08:33.006Z,62.10
2023-05-19T07:11:36.433Z,61.48
2023-05-19T07:14:39.238Z,60.96
2023-05-19T07:17:42.161Z,60.47
2023-05-19T07:20:44.295Z,59.91
2023-05-19T07:23:46.369Z,59.02
2023-05-19T07:26:48.551Z,58.07
2023-05-19T07:29:50.798Z,57.20
2023-05-19T07:32:53.024Z,56.34
2023-05-19T07:35:55.239Z,55.79
2023-05-19T07:38:57.451Z,54.93
2023-05-19T07:41:59.585Z,54.14
2023-05-19T07:45:03.449Z,53.38
2023-05-19T07:48:05.762Z,52.27
2023-05-19T07:51:10.469Z,51.23
2023-05-19T07:54:12.827Z,51.01
2023-05-19T07:57:14.936Z,49.97
2023-05-19T08:00:18.171Z,48.76
2023-05-19T08:03:21.140Z,48.04
2023-05-19T08:06:23.593Z,47.56
2023-05-19T08:09:25.771Z,46.79
2023-05-19T08:12:28.220Z,45.54
2023-05-19T08:15:30.408Z,44.75
2023-05-19T08:18:32.812Z,44.28
2023-05-19T08:21:36.772Z,43.85
2023-05-19T08:24:39.612Z,43.39
2023-05-19T08:27:41.865Z,42.70
2023-05-19T08:30:44.084Z,43.23
2023-05-19T08:33:46.415Z,43.51
2023-05-19T08:36:48.971Z,43.56
2023-05-19T08:39:51.087Z,43.45
2023-05-19T08:46:20.626Z,43.41
2023-05-19T08:49:30.656Z,43.64
2023-05-19T08:52:42.689Z,44.15
2023-05-19T08:55:55.040Z,44.54
2023-05-19T08:59:00.585Z,44.54
2023-05-19T09:02:04.652Z,44.31
2023-05-19T09:05:07.810Z,42.78
2023-05-19T09:08:10.303Z,41.36
2023-05-19T09:11:13.126Z,41.89
2023-05-19T09:14:15.697Z,42.83
2023-05-19T09:17:19.298Z,43.69
2023-05-19T09:20:21.568Z,44.07
2023-05-19T09:23:25.369Z,43.77
2023-05-19T09:26:38.017Z,42.94
2023-05-19T09:29:40.236Z,41.90
2023-05-19T09:32:43.765Z,42.01
2023-05-19T09:35:49.554Z,42.97
2023-05-19T09:38:52.375Z,44.26
2023-05-19T09:41:56.443Z,44.59
2023-05-19T09:45:03.168Z,44.55
2023-05-19T09:48:06.611Z,43.98
2023-05-19T09:51:11.185Z,43.31
2023-05-19T09:54:19.448Z,43.77
2023-05-19T09:57:29.589Z,44.35
2023-05-19T10:04:30.151Z,46.14
2023-05-19T10:07:34.085Z,46.00
2023-05-19T10:10:38.697Z,45.65
2023-05-19T10:13:41.762Z,44.49
2023-05-19T10:16:46.109Z,44.03
2023-05-19T10:19:51.360Z,44.13
2023-05-19T10:22:53.612Z,43.59
2023-05-19T10:25:59.666Z,43.31
2023-05-19T10:29:04.096Z,43.77
2023-05-19T10:32:11.777Z,43.76
2023-05-19T10:35:24.640Z,43.57
2023-05-19T10:39:01.705Z,43.46
2023-05-19T10:42:37.194Z,42.80
2023-05-19T10:45:52.352Z,42.32
2023-05-19T10:48:55.990Z,42.43
2023-05-19T10:51:58.340Z,42.27
2023-05-19T10:55:02.724Z,41.62
2023-05-19T10:58:04.887Z,40.91
2023-05-19T11:01:17.553Z,40.36
2023-05-19T11:04:38.867Z,38.48
2023-05-19T11:08:04.861Z,37.29
2023-05-19T11:11:17.454Z,35.85
2023-05-19T11:14:23.353Z,36.13
2023-05-19T11:17:26.471Z,35.85
2023-05-19T11:20:35.266Z,35.80
2023-05-19T11:23:41.075Z,36.31
2023-05-19T11:26:44.065Z,36.36
2023-05-19T11:29:47.236Z,35.57
2023-05-19T11:32:50.028Z,35.65
2023-05-19T11:35:52.483Z,36.57
2023-05-19T11:38:55.305Z,36.47
2023-05-19T11:41:57.743Z,37.05
2023-05-19T11:45:00.241Z,37.37
2023-05-19T11:48:05.927Z,38.13
2023-05-19T11:51:08.394Z,38.98
2023-05-19T11:54:12.481Z,39.11
2023-05-19T11:57:15.229Z,39.09
2023-05-19T12:00:17.678Z,39.08
2023-05-19T12:03:23.622Z,38.96
2023-05-19T12:06:27.043Z,38.48
2023-05-19T12:09:29.435Z,38.38
2023-05-19T12:12:32.447Z,38.35
2023-05-19T12:15:35.145Z,38.47
2023-05-19T12:18:39.089Z,38.70
2023-05-19T12:21:42.144Z,39.47
2023-05-19T12:24:45.622Z,39.62
2023-05-19T12:27:50.081Z,40.02
2023-05-19T12:30:53.769Z,40.05
2023-05-19T12:33:56.556Z,40.52
2023-05-19T12:36:58.921Z,41.02
2023-05-19T12:40:02.442Z,41.51
2023-05-19T12:43:05.796Z,41.64
2023-05-19T12:46:16.626Z,41.20
2023-05-19T12:49:19.084Z,40.86
2023-05-19T12:52:23.933Z,39.99
2023-05-19T12:55:26.218Z,38.66
2023-05-19T12:58:34.536Z,37.57
2023-05-19T13:01:37.813Z,36.05
2023-05-19T13:04:40.088Z,34.69
2023-05-19T13:07:42.559Z,34.26
2023-05-19T13:10:46.184Z,34.33
2023-05-19T13:13:48.411Z,34.33
2023-05-19T13:16:50.714Z,33.57
2023-05-19T13:19:55.471Z,33.51
2023-05-19T13:22:57.827Z,34.11
2023-05-19T13:26:00.312Z,35.38
2023-05-19T13:29:03.061Z,36.33
2023-05-19T13:32:05.417Z,36.91
2023-05-19T13:35:07.846Z,37.31
2023-05-19T13:38:10.846Z,37.45
2023-05-19T13:41:13.873Z,37.20
2023-05-19T13:44:17.488Z,37.17
2023-05-19T13:47:19.838Z,36.77
2023-05-19T13:50:22.460Z,36.36
2023-05-19T13:53:24.842Z,36.04
2023-05-19T13:56:27.287Z,36.10
2023-05-19T13:59:30.167Z,36.20
2023-05-19T14:04:22.233Z,37.25
2023-05-19T14:07:26.020Z,37.49
2023-05-19T14:10:28.318Z,39.48
2023-05-19T14:13:34.775Z,42.68
2023-05-19T14:16:41.274Z,45.49
2023-05-19T14:19:43.635Z,47.21
2023-05-19T14:22:45.994Z,47.78
2023-05-19T14:25:48.195Z,47.62
2023-05-19T14:28:50.842Z,48.45
2023-05-19T14:31:53.486Z,49.56
2023-05-19T14:34:55.967Z,50.29
2023-05-19T14:37:58.295Z,50.37
2023-05-19T14:41:01.115Z,51.02
2023-05-19T14:44:03.715Z,51.39
2023-05-19T14:47:07.705Z,51.07
2023-05-19T14:50:09.974Z,49.12
2023-05-19T14:53:12.404Z,46.66
2023-05-19T14:56:14.682Z,45.58
2023-05-19T14:59:16.981Z,46.08
2023-05-19T15:02:19.330Z,46.78
2023-05-19T15:05:23.367Z,48.16
2023-05-19T15:08:25.625Z,50.05
2023-05-19T15:11:27.883Z,52.38
2023-05-19T15:14:30.993Z,55.02
2023-05-19T15:17:33.656Z,57.50
2023-05-19T15:20:36.099Z,59.42
2023-05-19T15:23:38.691Z,60.58
2023-05-19T15:26:40.905Z,62.13
2023-05-19T15:29:43.275Z,62.21
2023-05-19T15:32:45.311Z,59.86
2023-05-19T15:35:51.828Z,57.51
2023-05-19T15:38:53.971Z,57.31
2023-05-19T15:41:55.981Z,57.51
2023-05-19T15:44:58.214Z,57.07
2023-05-19T15:48:00.425Z,57.27
2023-05-19T15:51:02.696Z,56.81
2023-05-19T15:54:05.034Z,56.55
2023-05-19T15:57:07.339Z,57.51
2023-05-19T16:00:10.316Z,59.01
2023-05-19T16:03:13.193Z,60.53
2023-05-19T16:06:15.374Z,61.96
2023-05-19T16:09:17.563Z,63.26
2023-05-19T16:12:19.798Z,64.25
2023-05-19T16:15:22.276Z,65.35
2023-05-19T16:18:24.445Z,66.57
2023-05-19T16:21:26.624Z,67.55
2023-05-19T16:24:28.788Z,69.04
2023-05-19T16:27:31.042Z,70.55
2023-05-19T16:30:33.683Z,72.27
2023-05-19T16:33:36.428Z,73.96
2023-05-19T16:36:38.765Z,75.15
2023-05-19T16:39:41.016Z,75.82
2023-05-19T16:42:43.267Z,76.20
2023-05-19T16:45:45.309Z,76.41
2023-05-19T16:48:47.481Z,76.90
2023-05-19T16:51:53.208Z,77.40
2023-05-19T16:54:55.526Z,78.22
2023-05-19T16:57:58.293Z,79.08
2023-05-19T17:01:00.621Z,80.03
2023-05-19T17:04:02.841Z,80.61
2023-05-19T17:07:04.908Z,80.19
2023-05-19T17:10:07.901Z,79.16
2023-05-19T17:13:11.499Z,78.59
2023-05-19T17:16:13.672Z,79.08
2023-05-19T17:19:16.590Z,80.27
2023-05-19T17:22:19.465Z,81.68
2023-05-19T17:25:22.122Z,82.99
2023-05-19T17:28:24.448Z,83.90
2023-05-19T17:31:26.617Z,84.90
2023-05-19T17:34:29.779Z,85.88
2023-05-19T17:37:32.021Z,87.00
2023-05-19T17:40:36.228Z,88.11
2023-05-19T17:43:40.529Z,89.04
2023-05-19T17:46:42.903Z,90.15
2023-05-19T17:49:46.488Z,91.09
2023-05-19T17:52:49.440Z,92.21
2023-05-19T17:55:59.597Z,93.68
2023-05-19T17:59:02.251Z,94.91
2023-05-19T18:04:43.609Z,97.78
2023-05-19T18:07:46.723Z,99.35
2023-05-19T18:10:51.167Z,100.00
2023-05-19T18:13:53.386Z,100.00
2023-05-19T18:16:55.780Z,100.00
2023-05-19T18:19:58.439Z,100.00
2023-05-19T18:23:01.290Z,100.00
2023-05-19T18:26:03.918Z,100.00
2023-05-19T18:29:06.394Z,100.00
2023-05-19T18:32:09.006Z,100.00
2023-05-19T18:35:11.772Z,100.00
2023-05-19T18:38:13.859Z,100.00
2023-05-19T18:41:16.730Z,100.00
2023-05-19T18:44:18.807Z,100.00
2023-05-19T18:47:22.856Z,100.00
2023-05-19T18:50:25.275Z,100.00
2023-05-19T18:53:27.487Z,100.00
2023-05-19T18:56:32.886Z,100.00
2023-05-19T18:59:35.194Z,100.00
2023-05-19T19:02:37.274Z,100.00
2023-05-19T19:05:39.644Z,100.00
2023-05-19T19:08:41.610Z,100.00
2023-05-19T19:11:43.834Z,100.00
2023-05-19T19:14:46.410Z,100.00
2023-05-19T19:17:48.361Z,100.00
2023-05-19T19:20:50.518Z,100.00
2023-05-19T19:23:54.462Z,100.00
2023-05-19T19:26:56.630Z,100.00
2023-05-19T19:29:59.165Z,100.00
2023-05-19T19:33:01.259Z,100.00
2023-05-19T19:36:04.616Z,100.00
2023-05-19T19:39:06.701Z,100.00
2023-05-19T19:42:08.771Z,100.00
2023-05-19T19:45:13.979Z,100.00
2023-05-19T19:48:17.661Z,100.00
2023-05-19T19:51:19.748Z,100.00
2023-05-19T19:54:21.717Z,100.00
2023-05-19T19:57:24.836Z,100.00
2023-05-19T20:00:26.962Z,100.00
2023-05-19T20:03:33.008Z,100.00
2023-05-19T20:06:36.625Z,100.00
2023-05-19T20:09:38.906Z,100.00
2023-05-19T20:12:41.182Z,100.00
2023-05-19T20:15:44.283Z,100.00
2023-05-19T20:18:46.357Z,100.00
2023-05-19T20:21:48.510Z,100.00
2023-05-19T20:24:50.659Z,100.00
2023-05-19T20:27:52.760Z,100.00
2023-05-19T20:30:55.049Z,100.00
2023-05-19T20:33:58.168Z,100.00
2023-05-19T20:37:01.500Z,100.00
2023-05-19T20:40:04.512Z,100.00
2023-05-19T20:43:07.191Z,100.00
2023-05-19T20:46:09.722Z,100.00
2023-05-19T20:49:12.091Z,100.00
2023-05-19T20:52:16.459Z,100.00
2023-05-19T20:55:19.119Z,100.00
2023-05-19T20:58:21.590Z,100.00
2023-05-19T21:01:25.104Z,100.00
2023-05-19T21:04:27.634Z,100.00
2023-05-19T21:07:29.614Z,100.00
2023-05-19T21:10:33.790Z,100.00
2023-05-19T21:13:38.923Z,100.00
2023-05-19T21:16:42.272Z,100.00
2023-05-19T21:19:44.419Z,100.00
2023-05-19T21:22:46.785Z,100.00
2023-05-19T21:25:50.399Z,100.00
2023-05-19T21:28:52.593Z,100.00
2023-05-19T21:31:59.512Z,100.00
2023-05-19T21:35:02.001Z,100.00
2023-05-19T21:38:15.633Z,100.00
2023-05-19T21:41:24.802Z,100.00
2023-05-19T21:44:27.059Z,100.00
2023-05-19T21:47:29.342Z,100.00
2023-05-19T21:50:36.307Z,100.00
2023-05-19T21:53:38.583Z,100.00
2023-05-19T21:56:40.664Z,100.00
2023-05-19T21:59:44.329Z,100.00
2023-05-19T22:04:23.049Z,100.00
2023-05-19T22:07:27.264Z,100.00
2023-05-19T22:10:29.659Z,100.00
2023-05-19T22:13:32.683Z,100.00
2023-05-19T22:16:35.395Z,100.00
2023-05-19T22:19:38.353Z,100.00
2023-05-19T22:22:40.731Z,100.00
2023-05-19T22:25:42.896Z,100.00
2023-05-19T22:28:45.275Z,100.00
2023-05-19T22:31:47.849Z,100.00
2023-05-19T22:34:50.193Z,100.00
2023-05-19T22:37:52.249Z,100.00
2023-05-19T22:40:54.388Z,100.00
2023-05-19T22:43:56.656Z,100.00
2023-05-19T22:46:58.779Z,100.00
2023-05-19T22:50:00.930Z,100.00
2023-05-19T22:53:03.025Z,100.00
2023-05-19T22:56:05.364Z,100.00
2023-05-19T22:59:07.479Z,100.00
2023-05-19T23:05:57.907Z,100.00
2023-05-19T23:09:02.394Z,100.00
2023-05-19T23:12:05.262Z,100.00
2023-05-19T23:15:08.993Z,100.00
2023-05-19T23:18:12.051Z,100.00
2023-05-19T23:21:14.487Z,100.00
2023-05-19T23:24:16.771Z,100.00
2023-05-19T23:27:19.085Z,100.00
2023-05-19T23:30:21.462Z,100.00
2023-05-19T23:33:23.901Z,100.00
2023-05-19T23:36:26.231Z,100.00
2023-05-19T23:39:28.377Z,100.00
2023-05-19T23:42:30.552Z,100.00
2023-05-19T23:45:33.203Z,100.00
2023-05-19T23:48:37.028Z,100.00
2023-05-19T23:51:39.188Z,100.00
2023-05-19T23:54:41.461Z,100.00
2023-05-19T23:57:43.752Z,100.00
